• Join FlightAware (Why Join?)
  • Login
  • US Flag 
10:22AM EST


 

Airport Tracker/Info


-or-


 

Live Flight TrackerFlight Track Log ✈ DAL1515 ✈ 01-Jul-2013 ✈ KATL - KALB

Flight Track Log - Related Links

Times and Time Zones

All times are in EDT time to prevent confusion due to time zone crossing. See the DAL1515 flight status page for this flight to view local times or setup timezone preferences in your user account.

Time Position Orientation Groundspeed Altitude Reporting Facility
EDT Latitude Longitude Course Direction KTS MPH feet Rate Location/Type
09:10PM 41.0005 -76.1606 39° Northeast  Level Estimated
09:11PM 41.0121 -76.1456 44° Northeast  Level Estimated
09:12PM 41.0237 -76.1305 44° Northeast  Level Estimated
09:13PM 41.0354 -76.1155 44° Northeast  Level Estimated
09:14PM 41.0470 -76.1004 44° Northeast  Level Estimated
09:15PM 41.0586 -76.0853 44° Northeast  Level Estimated
09:16PM 41.0702 -76.0703 44° Northeast  Level Estimated
09:17PM 41.0818 -76.0552 44° Northeast  Level Estimated
09:18PM 41.0934 -76.0401 44° Northeast  Level Estimated
09:19PM 41.1050 -76.0250 44° Northeast  Level Estimated
09:20PM 41.1166 -76.0099 44° Northeast  Level Estimated
09:21PM 41.1282 -75.9948 44° Northeast  Level Estimated
09:22PM 41.1398 -75.9797 44° Northeast  Level Estimated
09:23PM 41.1513 -75.9646 44° Northeast  Level Estimated
09:24PM 41.1629 -75.9495 44° Northeast  Level Estimated
09:25PM 41.1745 -75.9344 44° Northeast  Level Estimated
09:26PM 41.1861 -75.9193 44° Northeast  Level Estimated
09:27PM 41.1977 -75.9042 45° Northeast  Level Estimated
09:28PM 41.2093 -75.8890 45° Northeast  Level Estimated
09:29PM 41.2208 -75.8739 45° Northeast  Level Estimated
09:30PM 41.2324 -75.8587 45° Northeast  Level Estimated
09:31PM 41.2440 -75.8436 45° Northeast  Level Estimated
09:32PM 41.2556 -75.8284 45° Northeast  Level Estimated
09:33PM 41.2671 -75.8133 45° Northeast  Level Estimated
09:34PM 41.2787 -75.7981 45° Northeast  Level Estimated
09:35PM 41.2903 -75.7829 45° Northeast  Level Estimated
09:36PM 41.3018 -75.7678 45° Northeast  Level Estimated
09:37PM 41.3134 -75.7526 45° Northeast  Level Estimated
09:38PM 41.3250 -75.7374 45° Northeast  Level Estimated
09:39PM 41.3365 -75.7222 45° Northeast  Level Estimated
09:40PM 41.3481 -75.7070 45° Northeast  Level Estimated
09:41PM 41.3596 -75.6918 45° Northeast  Level Estimated
09:42PM 41.3712 -75.6766 45° Northeast  Level Estimated
09:43PM 41.3827 -75.6614 45° Northeast  Level Estimated
09:44PM 41.3943 -75.6462 45° Northeast  Level Estimated
09:45PM 41.4058 -75.6309 45° Northeast  Level Estimated
09:46PM 41.4174 -75.6157 45° Northeast  Level Estimated
09:47PM 41.4289 -75.6005 45° Northeast  Level Estimated
09:48PM 41.4404 -75.5852 45° Northeast  Level Estimated
09:49PM 41.4520 -75.5700 45° Northeast  Level Estimated
09:50PM 41.4635 -75.5547 45° Northeast  Level Estimated
09:51PM 41.4751 -75.5395 45° Northeast  Level Estimated
09:52PM 41.4866 -75.5242 45° Northeast  Level Estimated
09:53PM 41.4981 -75.5089 45° Northeast  Level Estimated
09:54PM 41.5096 -75.4937 45° Northeast  Level Estimated
09:55PM 41.5212 -75.4784 45° Northeast  Level Estimated
09:56PM 41.5327 -75.4631 45° Northeast  Level Estimated
09:57PM 41.5442 -75.4478 45° Northeast  Level Estimated
09:58PM 41.5557 -75.4325 45° Northeast  Level Estimated
09:59PM 41.5672 -75.4172 45° Northeast  Level Estimated
10:00PM 41.5788 -75.4019 45° Northeast  Level Estimated
10:01PM 41.5903 -75.3866 45° Northeast  Level Estimated
10:02PM 41.6018 -75.3713 45° Northeast  Level Estimated
10:03PM 41.6133 -75.3560 45° Northeast  Level Estimated
10:04PM 41.6248 -75.3406 45° Northeast  Level Estimated
10:05PM 41.6363 -75.3253 45° Northeast  Level Estimated
10:06PM 41.6478 -75.3100 45° Northeast  Level Estimated
10:07PM 41.6593 -75.2946 45° Northeast  Level Estimated
10:08PM 41.6708 -75.2793 45° Northeast  Level Estimated
10:09PM 41.6823 -75.2639 45° Northeast  Level Estimated
10:10PM 41.6938 -75.2486 45° Northeast  Level Estimated
10:11PM 41.7053 -75.2332 45° Northeast  Level Estimated
10:12PM 41.7168 -75.2178 45° Northeast  Level Estimated
10:13PM 41.7283 -75.2024 45° Northeast  Level Estimated
10:14PM 41.7398 -75.1870 45° Northeast  Level Estimated
10:15PM 41.7513 -75.1717 45° Northeast  Level Estimated
10:16PM 41.7627 -75.1563 45° Northeast  Level Estimated
10:17PM 41.7742 -75.1409 45° Northeast  Level Estimated
10:18PM 41.7857 -75.1255 45° Northeast  Level Estimated
10:19PM 41.7972 -75.1100 45° Northeast  Level Estimated
10:20PM 41.8087 -75.0946 45° Northeast  Level Estimated
10:21PM 41.8201 -75.0792 45° Northeast  Level Estimated
10:22PM 41.8316 -75.0638 45° Northeast  Level Estimated
10:23PM 41.8431 -75.0483 45° Northeast  Level Estimated
10:24PM 41.8545 -75.0329 45° Northeast  Level Estimated
10:25PM 41.8660 -75.0175 45° Northeast  Level Estimated
10:26PM 41.8774 -75.0020 45° Northeast  Level Estimated
10:27PM 41.8889 -74.9866 45° Northeast  Level Estimated
10:28PM 41.9004 -74.9711 45° Northeast  Level Estimated
10:29PM 41.9118 -74.9556 45° Northeast  Level Estimated
10:30PM 41.9233 -74.9402 45° Northeast  Level Estimated
10:31PM 41.9347 -74.9247 45° Northeast  Level Estimated
10:32PM 41.9462 -74.9092 45° Northeast  Level Estimated
10:33PM 41.9576 -74.8937 45° Northeast  Level Estimated
10:34PM 41.9691 -74.8782 45° Northeast  Level Estimated
10:35PM 41.9805 -74.8627 45° Northeast  Level Estimated
10:36PM 41.9920 -74.8472 45° Northeast  Level Estimated
10:37PM 42.0034 -74.8317 45° Northeast  Level Estimated
10:38PM 42.0148 -74.8162 45° Northeast  Level Estimated
10:39PM 42.0263 -74.8007 45° Northeast  Level Estimated
10:40PM 42.0377 -74.7851 45° Northeast  Level Estimated
10:41PM 42.0491 -74.7696 45° Northeast  Level Estimated
10:42PM 42.0606 -74.7541 45° Northeast  Level Estimated
10:43PM 42.0720 -74.7385 45° Northeast  Level Estimated
10:44PM 42.0834 -74.7230 45° Northeast  Level Estimated
10:45PM 42.0948 -74.7074 45° Northeast  Level Estimated
10:46PM 42.1063 -74.6918 45° Northeast  Level Estimated
10:47PM 42.1177 -74.6763 45° Northeast  Level Estimated
10:48PM 42.1291 -74.6607 45° Northeast  Level Estimated
10:49PM 42.1405 -74.6451 45° Northeast  Level Estimated
10:50PM 42.1519 -74.6295 45° Northeast  Level Estimated
10:51PM 42.1633 -74.6140 45° Northeast  Level Estimated
10:52PM 42.1747 -74.5984 45° Northeast  Level Estimated
10:53PM 42.1861 -74.5828 45° Northeast  Level Estimated
10:54PM 42.1976 -74.5672 45° Northeast  Level Estimated
10:55PM 42.2090 -74.5516 45° Northeast  Level Estimated
10:56PM 42.2203 -74.5359 45° Northeast  Level Estimated
10:57PM 42.2318 -74.5203 45° Northeast  Level Estimated
10:58PM 42.2431 -74.5047 45° Northeast  Level Estimated
10:59PM 42.2545 -74.4891 45° Northeast  Level Estimated
11:00PM 42.2659 -74.4734 45° Northeast  Level Estimated
11:01PM 42.2773 -74.4578 45° Northeast  Level Estimated
11:02PM 42.2887 -74.4421 45° Northeast  Level Estimated
11:03PM 42.3001 -74.4265 45° Northeast  Level Estimated
11:04PM 42.3115 -74.4108 45° Northeast  Level Estimated
11:05PM 42.3228 -74.3951 46° Northeast  Level Estimated
11:06PM 42.3342 -74.3794 46° Northeast  Level Estimated
11:07PM 42.3456 -74.3638 46° Northeast  Level Estimated
11:08PM 42.3570 -74.3481 46° Northeast  Level Estimated
11:09PM 42.3684 -74.3324 46° Northeast  Level Estimated
11:10PM 42.3797 -74.3167 46° Northeast  Level Estimated
11:11PM 42.3911 -74.3010 46° Northeast  Level Estimated
11:12PM 42.4025 -74.2853 46° Northeast  Level Estimated
11:13PM 42.4138 -74.2696 46° Northeast  Level Estimated
11:14PM 42.4252 -74.2539 46° Northeast  Level Estimated
11:15PM 42.4365 -74.2381 46° Northeast  Level Estimated
11:16PM 42.4479 -74.2224 46° Northeast  Level Estimated
11:17PM 42.4593 -74.2067 46° Northeast  Level Estimated
11:18PM 42.4706 -74.1909 46° Northeast  Level Estimated
11:19PM 42.4819 -74.1752 46° Northeast  Level Estimated
11:20PM 42.4933 -74.1594 46° Northeast  Level Estimated
11:21PM 42.5047 -74.1437 46° Northeast  Level Estimated
11:22PM 42.5160 -74.1279 46° Northeast  Level Estimated
11:23PM 42.5273 -74.1121 46° Northeast  Level Estimated
11:24PM 42.5387 -74.0964 46° Northeast  Level Estimated
11:25PM 42.5500 -74.0806 46° Northeast  Level Estimated
11:26PM 42.5614 -74.0648 46° Northeast  Level Estimated
11:27PM 42.5727 -74.0490 46° Northeast  Level Estimated
11:28PM 42.5840 -74.0332 46° Northeast  Level Estimated
11:29PM 42.5953 -74.0174 46° Northeast  Level Estimated
11:30PM 42.6067 -74.0016 46° Northeast  Level Estimated
11:31PM 42.6180 -73.9857 46° Northeast  Level Estimated
11:32PM 42.6293 -73.9699 46° Northeast  Level Estimated
11:33PM 42.6406 -73.9541 46° Northeast  Level Estimated
11:34PM 42.6520 -73.9383 46° Northeast  Level Estimated
11:35PM 42.6633 -73.9224 46° Northeast  Level Estimated
11:36PM 42.6746 -73.9066 46° Northeast  Level Estimated
11:37PM 42.6859 -73.8907 46° Northeast  Level Estimated
11:38PM 42.6972 -73.8749 46° Northeast  Level Estimated
11:39PM 42.7085 -73.8590 46° Northeast  Level Estimated
11:40PM 42.7198 -73.8431 46° Northeast  Level Estimated
11:41PM 42.7311 -73.8273 46° Northeast  Level Estimated
11:42PM 42.7424 -73.8114 46° Northeast  Level Estimated
11:43PM 42.7491 -73.8020 46° Northeast  Level Estimated
11:44PM 42.7491 -73.8020 304° West  Level Estimated
11:45PM 42.7491 -73.8020 304° West  Level Estimated
11:46PM 42.7491 -73.8020 304° West  Level Estimated
11:47PM 42.7491 -73.8020 304° West  Level Estimated
11:48PM 42.7491 -73.8020 304° West  Level Estimated
11:49PM 42.7491 -73.8020 304° West  Level Estimated
11:50PM 42.7491 -73.8020 304° West  Level Estimated
11:51PM 42.7491 -73.8020 304° West  Level Estimated
11:52PM 42.7491 -73.8020 304° West  Level Estimated
11:53PM 42.7491 -73.8020 304° West  Level Estimated
11:54PM 42.7491 -73.8020 304° West  Level Estimated
11:55PM 42.7491 -73.8020 304° West  Level Estimated
11:56PM 42.7491 -73.8020 304° West  Level Estimated
11:57PM 42.7491 -73.8020 304° West  Level Estimated
11:58PM 42.7491 -73.8020 304° West  Level Estimated
11:59PM 42.7491 -73.8020 304° West  Level Estimated